Time;durP1;ratioP1;P1;durP2;ratioP2;P2;SDS_P1;SDS_P2;PMS_P1;PMS_P2;Temp;Humidity;BMP_temperature;BMP_pressure;BME280_temperature;BME280_humidity;BME280_pressure;Samples;Min_cycle;Max_cycle;Signal;HPM_P1;HPM_P2
2021/12/21 00:00:15;;;;;;;;;;;28.30;92.20;;;;;;5054339;28;19908;-71
2021/12/21 00:02:43;;;;;;;;;;;28.30;91.90;;;;;;5054428;28;19909;-72
2021/12/21 00:05:16;;;;;;;;;;;28.50;91.90;;;;;;5054405;28;19973;-74
2021/12/21 00:07:43;;;;;;;;;;;28.50;93.00;;;;;;5054197;28;19921;-74
2021/12/21 00:10:11;;;;;;;;;;;28.60;93.30;;;;;;5053509;28;20279;-74
2021/12/21 00:12:46;;;;;;;;;;;28.60;93.50;;;;;;5054245;28;19995;-73
2021/12/21 00:15:28;;;;;;;;;;;28.80;93.10;;;;;;5053937;28;19996;-71
2021/12/21 00:18:06;;;;;;;;;;;28.90;93.20;;;;;;5053862;28;20322;-73
2021/12/21 00:20:59;;;;;;;;;;;29.10;92.60;;;;;;5053980;28;19970;-72
2021/12/21 00:23:38;;;;;;;;;;;29.20;92.90;;;;;;5054748;28;19944;-74
2021/12/21 00:26:09;;;;;;;;;;;29.30;92.00;;;;;;5053573;28;20414;-73
2021/12/21 00:28:49;;;;;;;;;;;29.30;91.90;;;;;;5053545;28;19917;-75
2021/12/21 00:31:16;;;;;;;;;;;29.40;91.60;;;;;;5053929;28;19971;-75
2021/12/21 00:33:45;;;;;;;;;;;29.50;91.30;;;;;;5053763;28;20273;-72
2021/12/21 00:36:13;;;;;;;;;;;29.70;91.00;;;;;;5053653;28;19909;-74
2021/12/21 00:38:40;;;;;;;;;;;29.80;90.00;;;;;;5053788;28;19935;-74
2021/12/21 00:41:06;;;;;;;;;;;29.90;90.40;;;;;;5052427;28;20000;-74
2021/12/21 00:43:33;;;;;;;;;;;30.00;89.50;;;;;;5053582;28;19909;-74
2021/12/21 00:46:00;;;;;;;;;;;30.20;89.40;;;;;;5053399;28;19932;-74
2021/12/21 00:48:29;;;;;;;;;;;30.30;88.70;;;;;;5053396;28;20026;-72
2021/12/21 00:51:00;;;;;;;;;;;30.60;88.40;;;;;;5053147;28;19908;-72
2021/12/21 00:53:27;;;;;;;;;;;30.60;88.90;;;;;;5053307;28;20283;-73
2021/12/21 00:55:54;;;;;;;;;;;30.60;88.10;;;;;;5052887;28;20058;-74
2021/12/21 00:58:21;;;;;;;;;;;30.60;88.30;;;;;;5053201;28;19944;-72
2021/12/21 01:00:49;;;;;;;;;;;30.90;85.90;;;;;;5052895;28;19908;-72
2021/12/21 01:03:17;;;;;;;;;;;30.90;86.20;;;;;;5063652;28;19909;-73
2021/12/21 01:08:15;;;;;;;;;;;31.50;86.10;;;;;;5072014;28;20371;-71
2021/12/21 01:13:27;;;;;;;;;;;31.60;86.70;;;;;;5072361;28;19944;-72
2021/12/21 01:18:27;;;;;;;;;;;31.40;85.00;;;;;;5072512;28;19908;-75
2021/12/21 01:21:18;;;;;;;;;;;31.30;86.90;;;;;;5103598;28;19999;-73
2021/12/21 01:26:27;;;;;;;;;;;31.30;85.70;;;;;;5072373;28;19916;-69
2021/12/21 01:42:18;;;;;;;;;;;31.80;86.50;;;;;;5061656;28;19948;-73
2021/12/21 01:50:14;;;;;;;;;;;31.50;86.40;;;;;;5072664;28;19924;-73
2021/12/21 01:52:40;;;;;;;;;;;31.00;87.90;;;;;;5072204;28;19915;-71
2021/12/21 01:55:07;;;;;;;;;;;30.90;89.20;;;;;;5072245;28;19916;-71
2021/12/21 01:57:34;;;;;;;;;;;30.70;89.00;;;;;;5072226;28;19912;-71
2021/12/21 02:00:01;;;;;;;;;;;30.50;88.00;;;;;;5070507;28;20007;-71
2021/12/21 02:02:27;;;;;;;;;;;30.30;88.40;;;;;;5072348;28;20371;-70
2021/12/21 02:04:54;;;;;;;;;;;30.10;88.70;;;;;;5072741;28;20007;-70
2021/12/21 02:07:21;;;;;;;;;;;30.10;88.80;;;;;;5072303;28;20456;-69
2021/12/21 02:09:47;;;;;;;;;;;29.90;88.00;;;;;;5071542;28;19920;-69
2021/12/21 02:12:18;;;;;;;;;;;29.90;87.90;;;;;;5072080;28;19995;-71
2021/12/21 02:14:51;;;;;;;;;;;29.80;87.10;;;;;;5072221;28;20252;-70
2021/12/21 02:23:04;;;;;;;;;;;29.50;88.60;;;;;;5072319;28;19955;-71
2021/12/21 02:30:49;;;;;;;;;;;29.40;88.70;;;;;;5072100;28;19908;-71
2021/12/21 02:33:16;;;;;;;;;;;29.30;88.30;;;;;;5071966;28;19909;-71
2021/12/21 02:35:43;;;;;;;;;;;29.20;89.30;;;;;;5071956;28;20355;-71
2021/12/21 02:38:11;;;;;;;;;;;29.20;89.20;;;;;;5070471;28;20383;-70
2021/12/21 02:40:38;;;;;;;;;;;29.40;89.40;;;;;;5071809;28;20431;-71
2021/12/21 02:43:05;;;;;;;;;;;29.40;89.90;;;;;;5072127;28;19963;-70
2021/12/21 02:45:32;;;;;;;;;;;29.40;88.50;;;;;;5072042;28;20332;-71
2021/12/21 02:47:58;;;;;;;;;;;29.30;90.00;;;;;;5071650;28;20355;-71
2021/12/21 02:50:25;;;;;;;;;;;29.20;89.90;;;;;;5071752;28;20070;-71
2021/12/21 02:52:51;;;;;;;;;;;29.10;90.30;;;;;;5071862;28;20274;-71
2021/12/21 02:55:18;;;;;;;;;;;29.10;90.20;;;;;;5071705;28;19912;-71
2021/12/21 02:57:45;;;;;;;;;;;29.10;90.80;;;;;;5071956;28;20262;-71
2021/12/21 03:00:12;;;;;;;;;;;29.10;90.70;;;;;;5071848;28;20309;-71
2021/12/21 03:02:39;;;;;;;;;;;29.00;90.40;;;;;;5072034;28;20409;-70
2021/12/21 03:05:06;;;;;;;;;;;29.10;90.50;;;;;;5073539;28;19913;-70
2021/12/21 03:10:23;;;;;;;;;;;29.00;90.20;;;;;;5075128;28;19927;-70
2021/12/21 03:15:16;;;;;;;;;;;29.00;90.70;;;;;;5075194;28;19908;-70
2021/12/21 03:17:43;;;;;;;;;;;28.90;90.80;;;;;;5075064;28;19908;-70
2021/12/21 03:20:10;;;;;;;;;;;28.90;91.10;;;;;;5074986;28;19909;-70
2021/12/21 03:22:37;;;;;;;;;;;28.90;91.40;;;;;;5075151;28;19909;-71
2021/12/21 03:25:04;;;;;;;;;;;28.80;91.30;;;;;;5075175;28;19908;-70
2021/12/21 03:27:30;;;;;;;;;;;28.90;91.40;;;;;;5075132;28;19913;-71
2021/12/21 03:29:57;;;;;;;;;;;28.90;91.60;;;;;;5074634;28;19916;-70
2021/12/21 03:32:24;;;;;;;;;;;28.80;92.00;;;;;;5107281;28;19915;-71
2021/12/21 03:34:50;;;;;;;;;;;28.90;92.30;;;;;;5074997;28;19955;-71
2021/12/21 03:37:17;;;;;;;;;;;28.80;91.40;;;;;;5075043;28;19948;-71
2021/12/21 03:39:45;;;;;;;;;;;28.70;91.20;;;;;;5073529;28;20322;-71
2021/12/21 03:42:13;;;;;;;;;;;28.60;91.80;;;;;;5074823;28;19962;-70
2021/12/21 03:44:40;;;;;;;;;;;28.50;92.00;;;;;;5074638;28;20016;-72
2021/12/21 03:47:10;;;;;;;;;;;28.70;91.90;;;;;;5074677;28;20422;-71
2021/12/21 03:52:12;;;;;;;;;;;28.30;92.20;;;;;;5074376;28;19919;-70
2021/12/21 03:54:39;;;;;;;;;;;28.50;92.30;;;;;;5074370;28;19912;-71
2021/12/21 03:57:06;;;;;;;;;;;28.50;92.70;;;;;;5074536;28;19916;-71
2021/12/21 03:59:33;;;;;;;;;;;28.50;92.30;;;;;;5074423;28;19962;-70
2021/12/21 04:02:00;;;;;;;;;;;28.50;92.20;;;;;;5074394;28;19915;-70
2021/12/21 04:04:27;;;;;;;;;;;28.50;91.50;;;;;;5074490;28;19962;-71
2021/12/21 04:06:54;;;;;;;;;;;28.30;91.20;;;;;;5074515;28;19916;-71
2021/12/21 04:09:21;;;;;;;;;;;28.30;91.70;;;;;;5074003;28;20394;-71
2021/12/21 04:11:47;;;;;;;;;;;28.40;91.10;;;;;;5074163;28;19908;-71
2021/12/21 04:14:17;;;;;;;;;;;28.40;91.20;;;;;;5074531;28;19908;-70
2021/12/21 04:16:43;;;;;;;;;;;28.40;91.00;;;;;;5073119;28;19908;-70
2021/12/21 04:19:13;;;;;;;;;;;28.50;90.90;;;;;;5074409;28;19916;-71
2021/12/21 04:21:40;;;;;;;;;;;28.50;90.60;;;;;;5074406;28;19912;-71
2021/12/21 04:24:07;;;;;;;;;;;28.60;90.70;;;;;;5074527;28;19912;-70
2021/12/21 04:26:34;;;;;;;;;;;28.60;90.60;;;;;;5109989;28;19908;-74
2021/12/21 04:29:00;;;;;;;;;;;28.60;91.00;;;;;;5073756;28;20390;-74
2021/12/21 04:31:27;;;;;;;;;;;28.60;91.20;;;;;;5074455;28;19908;-73
2021/12/21 04:33:54;;;;;;;;;;;28.60;91.30;;;;;;5074024;28;19908;-74
2021/12/21 04:36:20;;;;;;;;;;;28.40;91.40;;;;;;5074651;28;19936;-73
2021/12/21 04:38:50;;;;;;;;;;;28.10;91.90;;;;;;5073355;28;19909;-73
2021/12/21 04:41:23;;;;;;;;;;;27.90;92.10;;;;;;5073611;28;19955;-73
2021/12/21 04:43:53;;;;;;;;;;;27.90;91.70;;;;;;5073568;28;19909;-73
2021/12/21 04:46:20;;;;;;;;;;;28.10;91.80;;;;;;5073544;28;20374;-73
2021/12/21 04:48:47;;;;;;;;;;;28.10;91.50;;;;;;5073538;28;19962;-72
2021/12/21 04:51:14;;;;;;;;;;;28.10;91.90;;;;;;5073377;28;20023;-73
2021/12/21 04:53:40;;;;;;;;;;;28.20;91.40;;;;;;5073129;28;19913;-73
2021/12/21 04:56:08;;;;;;;;;;;28.10;90.90;;;;;;5073017;28;19909;-73
2021/12/21 04:58:34;;;;;;;;;;;28.00;90.80;;;;;;5073303;28;20316;-73
2021/12/21 05:01:01;;;;;;;;;;;28.10;91.30;;;;;;5073201;28;19962;-73
2021/12/21 05:03:28;;;;;;;;;;;28.10;91.00;;;;;;5073386;28;19908;-72
2021/12/21 05:05:55;;;;;;;;;;;28.10;90.30;;;;;;5072874;28;19915;-73
2021/12/21 05:08:29;;;;;;;;;;;27.90;90.60;;;;;;5072768;28;19926;-71
2021/12/21 05:11:00;;;;;;;;;;;27.90;91.50;;;;;;5073206;28;19965;-70
2021/12/21 05:13:29;;;;;;;;;;;27.70;92.40;;;;;;5073327;28;20308;-73
2021/12/21 05:15:57;;;;;;;;;;;27.80;92.30;;;;;;5072793;28;19908;-73
2021/12/21 05:18:24;;;;;;;;;;;27.80;92.90;;;;;;5073121;28;19912;-73
2021/12/21 05:20:51;;;;;;;;;;;27.70;93.20;;;;;;5073002;28;19916;-73
2021/12/21 05:23:17;;;;;;;;;;;27.80;93.40;;;;;;5072856;28;19908;-74
2021/12/21 05:25:44;;;;;;;;;;;28.00;93.70;;;;;;5072811;28;20350;-72
2021/12/21 05:28:12;;;;;;;;;;;28.00;94.10;;;;;;5072300;28;20052;-72
2021/12/21 05:30:39;;;;;;;;;;;27.90;94.50;;;;;;5072959;28;19967;-72
2021/12/21 05:33:05;;;;;;;;;;;27.80;94.60;;;;;;5072811;28;19909;-73
2021/12/21 05:35:33;;;;;;;;;;;27.60;95.10;;;;;;5072841;28;19908;-73
2021/12/21 05:38:03;;;;;;;;;;;27.50;95.70;;;;;;5072393;28;19908;-72
2021/12/21 05:40:36;;;;;;;;;;;27.50;96.20;;;;;;5072553;28;20274;-70
2021/12/21 05:43:03;;;;;;;;;;;27.40;96.60;;;;;;5072730;28;19908;-72
2021/12/21 05:45:30;;;;;;;;;;;27.40;96.80;;;;;;5072251;28;19912;-72
2021/12/21 05:47:57;;;;;;;;;;;27.50;96.40;;;;;;5072143;28;19971;-73
2021/12/21 05:50:25;;;;;;;;;;;27.60;96.90;;;;;;5072484;28;20358;-70
2021/12/21 05:52:52;;;;;;;;;;;27.50;96.60;;;;;;5069479;28;20012;-71
2021/12/21 05:55:19;;;;;;;;;;;27.50;97.20;;;;;;5070357;28;20011;-70
2021/12/21 05:57:46;;;;;;;;;;;27.50;97.20;;;;;;5070246;28;19912;-70
2021/12/21 06:00:14;;;;;;;;;;;27.40;97.50;;;;;;5070227;28;20035;-72
2021/12/21 06:02:42;;;;;;;;;;;27.40;97.80;;;;;;5070431;28;20394;-71
2021/12/21 06:05:08;;;;;;;;;;;27.30;97.50;;;;;;5069984;28;19908;-73
2021/12/21 06:07:35;;;;;;;;;;;27.30;97.60;;;;;;5070023;28;19951;-70
2021/12/21 06:10:10;;;;;;;;;;;27.40;96.70;;;;;;5069819;28;19971;-71
2021/12/21 06:13:12;;;;;;;;;;;27.30;97.80;;;;;;5069924;28;19952;-69
2021/12/21 06:26:31;;;;;;;;;;;27.30;98.10;;;;;;5069995;28;19916;-70
2021/12/21 06:28:58;;;;;;;;;;;27.20;98.20;;;;;;5069847;28;19938;-70
2021/12/21 06:31:25;;;;;;;;;;;27.20;97.80;;;;;;5069277;28;19912;-73
2021/12/21 06:33:51;;;;;;;;;;;27.20;97.60;;;;;;5069615;28;19908;-73
2021/12/21 06:36:18;;;;;;;;;;;27.20;97.60;;;;;;5069846;28;20002;-71
2021/12/21 06:38:45;;;;;;;;;;;27.00;97.70;;;;;;5070055;28;20271;-71
2021/12/21 06:41:11;;;;;;;;;;;27.00;98.00;;;;;;5073514;28;19916;-72
2021/12/21 06:43:38;;;;;;;;;;;27.00;98.00;;;;;;5073585;28;19908;-71
2021/12/21 06:51:40;;;;;;;;;;;27.00;98.30;;;;;;5073914;28;19918;-72
2021/12/21 06:54:07;;;;;;;;;;;27.00;98.50;;;;;;5073334;28;19987;-71
2021/12/21 06:56:33;;;;;;;;;;;26.80;99.10;;;;;;5073184;28;19908;-71
2021/12/21 06:59:00;;;;;;;;;;;26.80;99.50;;;;;;5073662;28;19962;-72
2021/12/21 07:01:28;;;;;;;;;;;26.90;99.60;;;;;;5073545;28;19958;-70
2021/12/21 07:03:55;;;;;;;;;;;26.90;99.50;;;;;;5073212;28;19961;-72
2021/12/21 07:06:23;;;;;;;;;;;26.80;99.20;;;;;;5057783;28;19913;-73
2021/12/21 07:09:05;;;;;;;;;;;26.70;99.70;;;;;;5053106;28;19916;-70
2021/12/21 07:19:32;;;;;;;;;;;26.60;99.90;;;;;;5072606;28;19959;-71
2021/12/21 07:21:58;;;;;;;;;;;26.60;99.90;;;;;;5072647;28;20013;-74
2021/12/21 07:24:26;;;;;;;;;;;26.60;99.90;;;;;;5072879;28;19908;-72
2021/12/21 07:26:53;;;;;;;;;;;26.60;99.90;;;;;;5072663;28;20157;-72
2021/12/21 07:29:19;;;;;;;;;;;26.60;99.90;;;;;;5072856;28;19916;-73
2021/12/21 07:31:46;;;;;;;;;;;26.60;99.90;;;;;;5072383;28;19913;-70
2021/12/21 07:34:13;;;;;;;;;;;26.50;99.90;;;;;;5072789;28;20003;-71
2021/12/21 07:36:43;;;;;;;;;;;26.50;99.90;;;;;;5072931;28;20355;-73
2021/12/21 07:39:11;;;;;;;;;;;26.50;99.90;;;;;;5072670;28;19916;-72
2021/12/21 07:41:38;;;;;;;;;;;26.50;99.90;;;;;;5072256;28;19957;-73
2021/12/21 07:44:05;;;;;;;;;;;26.40;99.90;;;;;;5072466;28;20353;-73
2021/12/21 07:46:32;;;;;;;;;;;26.40;99.90;;;;;;5072478;28;20458;-73
2021/12/21 07:48:58;;;;;;;;;;;26.30;99.90;;;;;;5071397;28;20287;-71
2021/12/21 07:51:25;;;;;;;;;;;26.30;99.90;;;;;;5072317;28;19908;-73
2021/12/21 07:53:52;;;;;;;;;;;26.30;99.90;;;;;;5072074;28;19916;-72
2021/12/21 07:56:19;;;;;;;;;;;26.20;99.90;;;;;;5072496;28;19920;-73
2021/12/21 07:58:47;;;;;;;;;;;26.20;99.90;;;;;;5072346;28;19908;-74
2021/12/21 08:01:14;;;;;;;;;;;26.10;99.90;;;;;;5072262;28;19920;-73
2021/12/21 08:03:41;;;;;;;;;;;26.00;99.90;;;;;;5072314;28;19920;-72
2021/12/21 08:06:11;;;;;;;;;;;26.00;99.90;;;;;;5073262;28;19916;-73
2021/12/21 08:08:41;;;;;;;;;;;26.10;99.90;;;;;;5074104;28;19927;-73
2021/12/21 08:12:12;;;;;;;;;;;26.00;99.90;;;;;;5074229;28;20011;-71
2021/12/21 08:13:55;;;;;;;;;;;26.00;99.90;;;;;;5073772;28;19967;-73
2021/12/21 08:16:21;;;;;;;;;;;26.00;99.90;;;;;;5074026;28;19962;-72
2021/12/21 08:18:48;;;;;;;;;;;26.00;99.90;;;;;;5074110;28;19916;-73
2021/12/21 08:21:17;;;;;;;;;;;26.00;99.90;;;;;;5073860;28;19908;-73
2021/12/21 08:23:44;;;;;;;;;;;25.90;99.90;;;;;;5073503;28;19908;-72
2021/12/21 08:26:11;;;;;;;;;;;25.90;99.90;;;;;;5069266;28;20011;-73
2021/12/21 08:28:37;;;;;;;;;;;25.80;99.90;;;;;;5073345;28;19916;-74
2021/12/21 08:31:04;;;;;;;;;;;25.80;99.90;;;;;;5073939;28;20410;-73
2021/12/21 08:33:31;;;;;;;;;;;25.70;99.90;;;;;;5070781;28;20187;-73
2021/12/21 08:35:58;;;;;;;;;;;25.70;99.90;;;;;;5053562;28;19913;-73
2021/12/21 08:38:24;;;;;;;;;;;25.60;99.90;;;;;;5053512;28;20286;-72
2021/12/21 08:40:53;;;;;;;;;;;25.70;99.90;;;;;;5053557;28;20429;-73
2021/12/21 08:43:24;;;;;;;;;;;25.70;99.90;;;;;;5053220;28;20003;-73
2021/12/21 08:45:52;;;;;;;;;;;25.60;99.90;;;;;;5052962;28;19919;-73
2021/12/21 08:48:20;;;;;;;;;;;25.60;99.90;;;;;;5053472;28;20351;-72
2021/12/21 08:50:47;;;;;;;;;;;25.50;99.90;;;;;;5053357;28;20279;-73
2021/12/21 08:53:14;;;;;;;;;;;25.50;99.90;;;;;;5052905;28;19995;-72
2021/12/21 08:55:41;;;;;;;;;;;25.50;99.90;;;;;;5053369;28;19913;-73
2021/12/21 08:58:09;;;;;;;;;;;25.50;99.90;;;;;;5053296;28;19909;-72
2021/12/21 09:00:35;;;;;;;;;;;25.50;99.90;;;;;;5053496;28;19916;-72
2021/12/21 09:03:02;;;;;;;;;;;25.50;99.90;;;;;;5052439;28;20003;-70
2021/12/21 09:05:31;;;;;;;;;;;25.50;99.90;;;;;;5052843;28;20050;-73
2021/12/21 09:07:58;;;;;;;;;;;25.40;99.90;;;;;;5053021;28;19913;-73
2021/12/21 09:10:26;;;;;;;;;;;25.40;99.90;;;;;;5052730;28;20390;-73
2021/12/21 09:12:53;;;;;;;;;;;25.50;99.90;;;;;;5052993;28;19955;-73
2021/12/21 09:15:20;;;;;;;;;;;25.50;99.90;;;;;;5052997;28;19909;-74
2021/12/21 09:17:47;;;;;;;;;;;25.50;99.90;;;;;;5052744;28;19916;-72
2021/12/21 09:20:15;;;;;;;;;;;25.50;99.90;;;;;;5052918;28;19909;-73
2021/12/21 09:22:42;;;;;;;;;;;25.50;99.90;;;;;;5052935;28;20375;-73
2021/12/21 09:25:10;;;;;;;;;;;25.50;99.90;;;;;;5052912;28;19912;-73
2021/12/21 09:27:37;;;;;;;;;;;25.40;99.90;;;;;;5052788;28;19908;-73
2021/12/21 09:30:05;;;;;;;;;;;25.50;99.90;;;;;;5052506;28;19976;-74
2021/12/21 09:32:31;;;;;;;;;;;25.50;99.90;;;;;;5052722;28;19990;-73
2021/12/21 09:34:58;;;;;;;;;;;25.50;99.90;;;;;;5052727;28;19912;-70
2021/12/21 09:37:25;;;;;;;;;;;25.50;99.90;;;;;;5052666;28;19916;-71
2021/12/21 09:39:53;;;;;;;;;;;25.50;99.90;;;;;;5052398;28;19909;-73
2021/12/21 09:42:30;;;;;;;;;;;25.50;99.90;;;;;;5052709;28;20182;-73
2021/12/21 09:44:57;;;;;;;;;;;25.50;99.90;;;;;;5052677;28;19909;-73
2021/12/21 09:47:24;;;;;;;;;;;25.50;99.90;;;;;;5052675;28;19913;-72
2021/12/21 09:49:51;;;;;;;;;;;25.50;99.90;;;;;;5052457;28;19921;-71
2021/12/21 09:52:19;;;;;;;;;;;25.50;99.90;;;;;;5052200;28;19916;-71
2021/12/21 09:54:45;;;;;;;;;;;25.60;99.90;;;;;;5052182;28;20294;-73
2021/12/21 09:57:16;;;;;;;;;;;25.70;99.90;;;;;;5052499;28;19912;-74
2021/12/21 09:59:43;;;;;;;;;;;25.70;99.90;;;;;;5052405;28;19913;-74
2021/12/21 10:02:09;;;;;;;;;;;25.60;99.90;;;;;;5052363;28;20308;-74
2021/12/21 10:04:49;;;;;;;;;;;25.60;99.90;;;;;;5052231;28;19915;-73
2021/12/21 10:07:18;;;;;;;;;;;25.50;99.90;;;;;;5052255;28;19915;-74
2021/12/21 10:09:47;;;;;;;;;;;25.50;99.90;;;;;;5052110;28;19927;-74
2021/12/21 10:12:14;;;;;;;;;;;25.50;99.90;;;;;;5052325;28;19944;-74
2021/12/21 10:14:41;;;;;;;;;;;25.50;99.90;;;;;;5055293;28;20344;-76
2021/12/21 10:17:09;;;;;;;;;;;25.50;99.90;;;;;;5056761;28;20449;-73
2021/12/21 10:19:43;;;;;;;;;;;25.50;99.90;;;;;;5056522;28;20330;-75
2021/12/21 10:22:11;;;;;;;;;;;25.60;99.90;;;;;;5056193;28;20299;-75
2021/12/21 10:24:48;;;;;;;;;;;25.50;99.90;;;;;;5056345;28;19916;-74
2021/12/21 10:27:15;;;;;;;;;;;25.50;99.90;;;;;;5056405;28;20004;-76
2021/12/21 10:29:49;;;;;;;;;;;25.40;99.90;;;;;;5056228;28;20286;-73
2021/12/21 10:32:17;;;;;;;;;;;25.40;99.90;;;;;;5056423;28;19955;-75
2021/12/21 10:34:54;;;;;;;;;;;25.30;99.90;;;;;;5056210;28;19916;-76
2021/12/21 10:37:23;;;;;;;;;;;25.30;99.90;;;;;;5055939;28;19912;-75
2021/12/21 10:40:01;;;;;;;;;;;25.30;99.90;;;;;;5055892;28;19921;-74
2021/12/21 10:42:27;;;;;;;;;;;25.30;99.90;;;;;;5056272;28;19908;-74
2021/12/21 10:45:01;;;;;;;;;;;25.20;99.90;;;;;;5055815;28;19916;-75
2021/12/21 10:47:30;;;;;;;;;;;25.30;99.90;;;;;;5056090;28;19909;-74
2021/12/21 10:49:56;;;;;;;;;;;25.30;99.90;;;;;;5055734;28;19921;-76
2021/12/21 10:52:23;;;;;;;;;;;25.20;99.90;;;;;;5055695;28;19909;-76
2021/12/21 10:54:51;;;;;;;;;;;25.20;99.90;;;;;;5055814;28;20031;-75
2021/12/21 10:57:19;;;;;;;;;;;25.20;99.90;;;;;;5055249;28;19908;-72
2021/12/21 10:59:47;;;;;;;;;;;25.20;99.90;;;;;;5052869;28;19919;-75
2021/12/21 11:02:17;;;;;;;;;;;25.20;99.90;;;;;;5053539;28;19909;-75
2021/12/21 11:04:46;;;;;;;;;;;25.20;99.90;;;;;;5053577;28;19913;-75
2021/12/21 11:07:27;;;;;;;;;;;25.10;99.90;;;;;;5053305;28;19912;-73
2021/12/21 11:09:55;;;;;;;;;;;25.10;99.90;;;;;;5053200;28;19924;-75
2021/12/21 11:12:23;;;;;;;;;;;25.10;99.90;;;;;;5052563;28;20015;-74
2021/12/21 11:14:51;;;;;;;;;;;25.10;99.90;;;;;;5053400;28;19999;-74
2021/12/21 11:17:19;;;;;;;;;;;25.10;99.90;;;;;;5053428;28;19916;-75
2021/12/21 11:19:46;;;;;;;;;;;25.10;99.90;;;;;;5053184;28;19913;-71
2021/12/21 11:22:13;;;;;;;;;;;25.10;99.90;;;;;;5053089;28;19909;-74
2021/12/21 11:24:41;;;;;;;;;;;25.10;99.90;;;;;;5052609;28;19916;-75
2021/12/21 11:27:07;;;;;;;;;;;25.10;99.90;;;;;;5052368;28;19916;-74
2021/12/21 11:29:35;;;;;;;;;;;25.10;99.90;;;;;;5053212;28;19920;-74
2021/12/21 11:32:03;;;;;;;;;;;25.10;99.90;;;;;;5053006;28;19913;-73
2021/12/21 11:34:32;;;;;;;;;;;25.20;99.90;;;;;;5053043;28;20371;-74
2021/12/21 11:39:43;;;;;;;;;;;25.20;99.90;;;;;;5052862;28;20318;-74
2021/12/21 11:42:11;;;;;;;;;;;25.20;99.90;;;;;;5052486;28;19962;-71
2021/12/21 11:44:38;;;;;;;;;;;25.20;99.90;;;;;;5053032;28;19945;-76
2021/12/21 11:47:07;;;;;;;;;;;25.10;99.90;;;;;;5052902;28;19913;-74
2021/12/21 11:49:54;;;;;;;;;;;25.00;99.90;;;;;;5052737;28;20552;-75
2021/12/21 11:52:22;;;;;;;;;;;24.80;99.90;;;;;;5052480;28;19920;-74
2021/12/21 11:54:53;;;;;;;;;;;24.70;99.90;;;;;;5052588;28;19909;-74
2021/12/21 11:57:32;;;;;;;;;;;24.60;99.90;;;;;;5052162;28;19913;-73
2021/12/21 12:00:19;;;;;;;;;;;24.40;99.90;;;;;;5052491;28;19913;-73
2021/12/21 12:02:46;;;;;;;;;;;24.30;99.90;;;;;;5052383;28;19909;-72
2021/12/21 12:05:28;;;;;;;;;;;24.20;99.90;;;;;;5052569;28;19909;-73
2021/12/21 12:08:05;;;;;;;;;;;24.20;99.90;;;;;;5052058;28;19912;-73
2021/12/21 12:10:40;;;;;;;;;;;24.10;99.90;;;;;;5051607;28;20015;-74
2021/12/21 12:13:09;;;;;;;;;;;24.10;99.90;;;;;;5052228;28;19913;-73
2021/12/21 12:16:08;;;;;;;;;;;24.00;99.90;;;;;;5052288;28;19962;-73
2021/12/21 12:18:36;;;;;;;;;;;24.00;99.90;;;;;;5039641;28;19956;-72
2021/12/21 12:21:17;;;;;;;;;;;23.90;99.90;;;;;;5051916;28;19913;-74
2021/12/21 12:23:46;;;;;;;;;;;23.90;99.90;;;;;;5051803;28;19913;-74
2021/12/21 12:26:20;;;;;;;;;;;23.80;99.90;;;;;;5052115;28;19909;-74
2021/12/21 12:28:47;;;;;;;;;;;23.80;99.90;;;;;;5052207;28;19960;-74
2021/12/21 12:31:26;;;;;;;;;;;23.70;99.90;;;;;;5051822;28;20459;-75
2021/12/21 12:33:53;;;;;;;;;;;23.70;99.90;;;;;;5051708;28;19909;-74
2021/12/21 12:36:19;;;;;;;;;;;23.70;99.90;;;;;;5051568;28;19955;-75
2021/12/21 12:38:48;;;;;;;;;;;23.60;99.90;;;;;;5051191;28;19908;-72
2021/12/21 12:41:15;;;;;;;;;;;23.60;99.90;;;;;;5051755;28;19912;-75
2021/12/21 12:43:44;;;;;;;;;;;23.60;99.90;;;;;;5051497;28;19913;-73
2021/12/21 12:46:21;;;;;;;;;;;23.60;99.90;;;;;;5051732;28;19923;-75
2021/12/21 12:48:48;;;;;;;;;;;23.50;99.90;;;;;;5051826;28;20256;-75
2021/12/21 12:51:26;;;;;;;;;;;23.50;99.90;;;;;;5051623;28;19913;-75
2021/12/21 12:53:53;;;;;;;;;;;23.40;99.90;;;;;;5051322;28;19941;-74
2021/12/21 12:56:20;;;;;;;;;;;23.40;99.90;;;;;;5051235;28;20407;-75
2021/12/21 12:58:50;;;;;;;;;;;23.40;99.90;;;;;;5051466;28;19908;-75
2021/12/21 13:01:22;;;;;;;;;;;23.40;99.90;;;;;;5051425;28;20322;-75
2021/12/21 13:03:50;;;;;;;;;;;23.30;99.90;;;;;;5051376;28;19916;-74
2021/12/21 13:06:18;;;;;;;;;;;23.30;99.90;;;;;;5051224;28;19913;-75
2021/12/21 13:08:45;;;;;;;;;;;23.30;99.90;;;;;;5050820;28;20003;-74
2021/12/21 13:11:13;;;;;;;;;;;23.30;99.90;;;;;;5051316;28;19970;-74
2021/12/21 13:13:42;;;;;;;;;;;23.30;99.90;;;;;;5051259;28;19916;-74
2021/12/21 13:16:11;;;;;;;;;;;23.20;99.90;;;;;;5050920;28;19909;-75
2021/12/21 13:18:46;;;;;;;;;;;23.20;99.90;;;;;;5051015;28;19909;-73
2021/12/21 13:21:19;;;;;;;;;;;23.10;99.90;;;;;;5050938;28;20280;-71
2021/12/21 13:23:49;;;;;;;;;;;23.10;99.90;;;;;;5050680;28;19913;-71
2021/12/21 13:26:18;;;;;;;;;;;23.00;99.90;;;;;;5051114;28;20356;-74
2021/12/21 13:28:52;;;;;;;;;;;23.00;99.90;;;;;;5050845;28;19916;-74
2021/12/21 13:31:21;;;;;;;;;;;22.90;99.90;;;;;;5050958;28;19909;-74
2021/12/21 13:33:52;;;;;;;;;;;22.90;99.90;;;;;;5050683;28;19999;-75
2021/12/21 13:36:19;;;;;;;;;;;22.90;99.90;;;;;;5050312;28;19948;-74
2021/12/21 13:38:46;;;;;;;;;;;22.90;99.90;;;;;;5050768;28;19996;-74
2021/12/21 13:41:14;;;;;;;;;;;22.80;99.90;;;;;;5050707;28;19912;-75
2021/12/21 13:44:01;;;;;;;;;;;22.80;99.90;;;;;;5050769;28;19958;-73
2021/12/21 13:46:33;;;;;;;;;;;22.80;99.90;;;;;;5050385;28;19947;-74
2021/12/21 13:48:59;;;;;;;;;;;22.80;99.90;;;;;;5050047;28;19917;-75
2021/12/21 13:51:26;;;;;;;;;;;22.80;99.90;;;;;;5050578;28;19996;-74
2021/12/21 13:53:55;;;;;;;;;;;22.70;99.90;;;;;;5050363;28;19922;-74
2021/12/21 13:56:23;;;;;;;;;;;22.70;99.90;;;;;;5050510;28;20453;-75
2021/12/21 13:58:54;;;;;;;;;;;22.60;99.90;;;;;;5050446;28;19939;-73
2021/12/21 14:01:25;;;;;;;;;;;22.70;99.90;;;;;;5050067;28;19917;-74
2021/12/21 14:03:56;;;;;;;;;;;22.60;99.90;;;;;;5050288;28;20322;-74
2021/12/21 14:06:24;;;;;;;;;;;22.60;99.90;;;;;;5050305;28;19909;-73
2021/12/21 14:08:52;;;;;;;;;;;22.60;99.90;;;;;;5050107;28;19964;-74
2021/12/21 14:11:32;;;;;;;;;;;22.60;99.90;;;;;;5049657;28;21314;-75
2021/12/21 14:14:01;;;;;;;;;;;22.60;99.90;;;;;;5049677;28;19913;-74
2021/12/21 14:16:29;;;;;;;;;;;22.50;99.90;;;;;;5050415;28;19909;-74
2021/12/21 14:18:58;;;;;;;;;;;22.50;99.90;;;;;;5050259;28;19951;-75
2021/12/21 14:21:26;;;;;;;;;;;22.50;99.90;;;;;;5050121;28;19909;-74
2021/12/21 14:23:54;;;;;;;;;;;22.50;99.90;;;;;;5050058;28;19912;-75
2021/12/21 14:26:23;;;;;;;;;;;22.40;99.90;;;;;;5050061;28;19913;-74
2021/12/21 14:28:55;;;;;;;;;;;22.40;99.90;;;;;;5049772;28;20413;-75
2021/12/21 14:31:24;;;;;;;;;;;22.40;99.90;;;;;;5050220;28;20382;-74
2021/12/21 14:33:54;;;;;;;;;;;22.40;99.90;;;;;;5049958;28;20011;-74
2021/12/21 14:36:21;;;;;;;;;;;22.40;99.90;;;;;;5049930;28;19919;-75
2021/12/21 14:38:57;;;;;;;;;;;22.40;99.90;;;;;;5050112;28;19909;-74
2021/12/21 14:41:31;;;;;;;;;;;22.40;99.90;;;;;;5049895;28;20317;-74
2021/12/21 14:44:02;;;;;;;;;;;22.40;99.90;;;;;;5049888;28;19915;-74
2021/12/21 14:46:29;;;;;;;;;;;22.40;99.90;;;;;;5050106;28;19913;-74
2021/12/21 14:48:56;;;;;;;;;;;22.40;99.90;;;;;;5049976;28;20394;-74
2021/12/21 14:51:23;;;;;;;;;;;22.40;99.90;;;;;;5049780;28;19917;-74
2021/12/21 14:54:06;;;;;;;;;;;22.40;99.90;;;;;;5049409;28;19921;-74
2021/12/21 14:56:35;;;;;;;;;;;22.40;99.90;;;;;;5049962;28;20346;-75
2021/12/21 14:59:03;;;;;;;;;;;22.30;99.90;;;;;;5050088;28;19958;-74
2021/12/21 15:01:37;;;;;;;;;;;22.40;99.90;;;;;;5052390;28;19908;-75
2021/12/21 15:04:14;;;;;;;;;;;22.30;99.90;;;;;;5053504;28;19909;-75
2021/12/21 15:06:44;;;;;;;;;;;22.30;99.90;;;;;;5053193;28;19935;-74
2021/12/21 15:09:11;;;;;;;;;;;22.30;99.90;;;;;;5053327;28;20438;-75
2021/12/21 15:11:43;;;;;;;;;;;22.20;99.90;;;;;;5053588;28;19916;-77
2021/12/21 15:14:09;;;;;;;;;;;22.20;99.90;;;;;;5053373;28;19909;-76
2021/12/21 15:16:36;;;;;;;;;;;22.10;99.90;;;;;;5053527;28;19909;-76
2021/12/21 15:19:03;;;;;;;;;;;22.10;99.90;;;;;;5053029;28;19909;-71
2021/12/21 15:21:30;;;;;;;;;;;22.10;99.90;;;;;;5053144;28;19917;-74
2021/12/21 15:24:00;;;;;;;;;;;22.10;99.90;;;;;;5052989;28;19909;-74
2021/12/21 15:26:27;;;;;;;;;;;22.10;99.90;;;;;;5053233;28;19967;-75
2021/12/21 15:28:54;;;;;;;;;;;22.10;99.90;;;;;;5052930;28;19917;-75
2021/12/21 15:31:20;;;;;;;;;;;22.00;99.90;;;;;;5053110;28;20015;-73
2021/12/21 15:33:47;;;;;;;;;;;22.10;99.90;;;;;;5052647;28;19913;-74
2021/12/21 15:36:14;;;;;;;;;;;22.00;99.90;;;;;;5053040;28;20454;-75
2021/12/21 15:38:40;;;;;;;;;;;22.00;99.90;;;;;;5053100;28;20387;-75
2021/12/21 15:41:07;;;;;;;;;;;22.00;99.90;;;;;;5053006;28;20391;-75